tititudorancea.com
Ararat Weather - Ararat,Victoria,Australia
 
Daily Summary for February 13, 2016 Units:  Metric    English   Both
« Previous Day
Next Day »
Daily Weekly Monthly Yearly Custom
  Current: High: Low: Average:
Temperature: 32.9 °C 34.6 °C 14.2 °C 23.4 °C
Dew Point: 13.6 °C 14.7 °C 7.5 °C 11.7 °C
Humidity: 31% 78% 24% 53%
Wind Speed: 8.7km/h 19.5km/h 0km/h 4.5km/h
Wind Gust: 21.9km/h 36.7km/h - -
WindNW - - WSW
Pressure: 1014.1 hPa 1018.5 hPa 1014.1 hPa -
Precipitation: 0 mm      
Historical Graphs
 
 
Ararat weather Find more about Weather in Ararat, AU


 



 


Tabular Data for February 13, 2016
Time Temperature Dew Point Pressure Wind Wind Speed Wind Gust Humidity Rainfall Rate (Hourly)
00:03 21.3 °C 13.2 °C 1018.5 hPa South 1.1 km/h 9.7 km/h 60% 0 mm
00:08 21.2 °C 12.8 °C 1018.5 hPa SE 1.1 km/h 7.2 km/h 59% 0 mm
00:13 20.9 °C 12.9 °C 1018.5 hPa SE 2.6 km/h 5 km/h 60% 0 mm
00:18 20.8 °C 12.7 °C 1018.5 hPa Calm   5 km/h 60% 0 mm
00:23 20.6 °C 12.8 °C 1018.5 hPa Calm   5 km/h 61% 0 mm
00:28 20.4 °C 12.9 °C 1018.2 hPa South 1.1 km/h 5 km/h 62% 0 mm
00:33 20.3 °C 13 °C 1018.2 hPa SSE 1.1 km/h 5 km/h 63% 0 mm
00:38 20.2 °C 12.9 °C 1018.2 hPa ESE 1.1 km/h 5 km/h 63% 0 mm
00:43 20 °C 12.7 °C 1018.2 hPa East 2.6 km/h 6.1 km/h 63% 0 mm
00:48 19.8 °C 12.8 °C 1018.2 hPa ESE 1.1 km/h 6.1 km/h 64% 0 mm
00:53 19.6 °C 12.6 °C 1018.2 hPa ESE 2.6 km/h 5 km/h 64% 0 mm
00:58 19.3 °C 12.6 °C 1018.2 hPa East 1.1 km/h 5 km/h 65% 0 mm
01:03 19.1 °C 12.4 °C 1017.8 hPa East 1.1 km/h 5 km/h 65% 0 mm
01:08 18.9 °C 12.2 °C 1017.8 hPa East 1.1 km/h 5 km/h 65% 0 mm
01:13 18.8 °C 12.3 °C 1017.8 hPa ESE 1.1 km/h 3.5 km/h 66% 0 mm
01:18 18.6 °C 12.2 °C 1017.8 hPa Calm   2.6 km/h 66% 0 mm
01:28 18.2 °C 12 °C 1017.8 hPa NW 1.1 km/h 2.6 km/h 67% 0 mm
01:33 18.1 °C 11.9 °C 1017.8 hPa Calm   2.6 km/h 67% 0 mm
01:38 18.1 °C 11.8 °C 1017.8 hPa Calm   2.6 km/h 67% 0 mm
01:43 17.9 °C 11.7 °C 1017.5 hPa Calm   1.1 km/h 67% 0 mm
01:48 17.7 °C 11.8 °C 1017.8 hPa Calm   1.1 km/h 68% 0 mm
01:53 17.7 °C 11.8 °C 1017.5 hPa NW 1.1 km/h 2.6 km/h 68% 0 mm
01:58 17.4 °C 11.7 °C 1017.5 hPa Calm   2.6 km/h 69% 0 mm
02:03 17.3 °C 11.6 °C 1017.5 hPa NW 1.1 km/h 2.6 km/h 69% 0 mm
02:13 17.1 °C 11.3 °C 1017.5 hPa Calm   2.6 km/h 69% 0 mm
02:18 16.9 °C 11.4 °C 1017.5 hPa Calm   2.6 km/h 70% 0 mm
02:23 16.8 °C 11.3 °C 1017.5 hPa Calm   1.1 km/h 70% 0 mm
02:28 16.7 °C 11.4 °C 1017.5 hPa NNW 1.1 km/h 2.6 km/h 71% 0 mm
02:43 16.3 °C 11 °C 1017.2 hPa Calm   2.6 km/h 71% 0 mm
02:48 16.3 °C 11.2 °C 1017.2 hPa Calm   3.5 km/h 72% 0 mm
02:53 16.2 °C 10.9 °C 1016.8 hPa Calm   3.5 km/h 71% 0 mm
02:58 16.1 °C 11.1 °C 1017.2 hPa Calm   2.6 km/h 72% 0 mm
03:03 16 °C 10.9 °C 1017.2 hPa Calm   2.6 km/h 72% 0 mm
03:08 15.9 °C 11.1 °C 1016.8 hPa Calm   3.5 km/h 73% 0 mm
03:13 15.8 °C 10.9 °C 1016.8 hPa NW 1.1 km/h 3.5 km/h 73% 0 mm
03:18 15.7 °C 10.8 °C 1016.8 hPa Calm   3.5 km/h 73% 0 mm
03:23 15.7 °C 10.8 °C 1016.8 hPa Calm   3.5 km/h 73% 0 mm
03:28 15.7 °C 11.1 °C 1016.8 hPa Calm   2.6 km/h 74% 0 mm
03:38 15.5 °C 10.9 °C 1016.8 hPa Calm   2.6 km/h 74% 0 mm
03:43 15.5 °C 10.9 °C 1016.8 hPa Calm   3.5 km/h 74% 0 mm
03:48 15.4 °C 10.8 °C 1016.8 hPa North 1.1 km/h 3.5 km/h 74% 0 mm
03:53 15.3 °C 10.7 °C 1016.5 hPa Calm   3.5 km/h 74% 0 mm
03:58 15.1 °C 10.5 °C 1016.5 hPa Calm   2.6 km/h 74% 0 mm
04:03 15.1 °C 10.7 °C 1016.8 hPa Calm   2.6 km/h 75% 0 mm
04:08 15 °C 10.6 °C 1016.5 hPa NW 1.1 km/h 3.5 km/h 75% 0 mm
04:13 14.9 °C 10.5 °C 1016.5 hPa Calm   3.5 km/h 75% 0 mm
04:18 14.9 °C 10.5 °C 1016.5 hPa Calm   2.6 km/h 75% 0 mm
04:24 14.8 °C 10.4 °C 1016.5 hPa Calm   2.6 km/h 75% 0 mm
04:28 14.8 °C 10.6 °C 1016.5 hPa Calm   2.6 km/h 76% 0 mm
04:34 14.7 °C 10.5 °C 1016.5 hPa Calm   2.6 km/h 76% 0 mm
04:49 14.6 °C 10.6 °C 1016.5 hPa Calm   2.6 km/h 77% 0 mm
04:54 14.6 °C 10.6 °C 1016.5 hPa Calm   2.6 km/h 77% 0 mm
04:59 14.6 °C 10.6 °C 1016.5 hPa Calm   2.6 km/h 77% 0 mm
05:09 14.5 °C 10.5 °C 1016.5 hPa Calm   2.6 km/h 77% 0 mm
05:14 14.4 °C 10.4 °C 1016.5 hPa NNW 1.1 km/h 3.5 km/h 77% 0 mm
05:19 14.4 °C 10.4 °C 1016.5 hPa NW 1.1 km/h 3.5 km/h 77% 0 mm
05:24 14.2 °C 10.2 °C 1016.5 hPa NW 2.6 km/h 5 km/h 77% 0 mm
05:29 14.2 °C 10.4 °C 1016.5 hPa NW 1.1 km/h 5 km/h 78% 0 mm
05:34 14.2 °C 10.4 °C 1016.5 hPa Calm   5 km/h 78% 0 mm
05:39 14.2 °C 10.4 °C 1016.1 hPa NNW 2.6 km/h 3.5 km/h 78% 0 mm
05:44 14.3 °C 10.6 °C 1016.5 hPa Calm   3.5 km/h 78% 0 mm
05:49 14.3 °C 10.6 °C 1016.1 hPa Calm   2.6 km/h 78% 0 mm
05:54 14.3 °C 10.6 °C 1016.5 hPa Calm   2.6 km/h 78% 0 mm
05:59 14.3 °C 10.6 °C 1016.5 hPa WNW 1.1 km/h 3.5 km/h 78% 0 mm
06:04 14.3 °C 10.6 °C 1016.1 hPa Calm   3.5 km/h 78% 0 mm
06:09 14.4 °C 10.4 °C 1016.1 hPa Calm   3.5 km/h 77% 0 mm
06:14 14.3 °C 10.6 °C 1016.1 hPa Calm   2.6 km/h 78% 0 mm
06:19 14.4 °C 10.4 °C 1016.5 hPa Calm   2.6 km/h 77% 0 mm
06:24 14.4 °C 10.4 °C 1016.5 hPa Calm   2.6 km/h 77% 0 mm
06:29 14.5 °C 10.5 °C 1016.8 hPa NW 1.1 km/h 3.5 km/h 77% 0 mm
06:34 14.5 °C 10.5 °C 1016.5 hPa Calm   3.5 km/h 77% 0 mm
06:39 14.5 °C 10.5 °C 1016.8 hPa Calm   3.5 km/h 77% 0 mm
06:44 14.5 °C 10.5 °C 1016.8 hPa Calm   2.6 km/h 77% 0 mm
06:49 14.5 °C 10.5 °C 1016.8 hPa WNW 1.1 km/h 3.5 km/h 77% 0 mm
06:54 14.6 °C 10.6 °C 1016.8 hPa North 1.1 km/h 3.5 km/h 77% 0 mm
06:59 14.7 °C 10.5 °C 1016.8 hPa Calm   2.6 km/h 76% 0 mm
07:04 14.9 °C 10.7 °C 1016.8 hPa NE 1.1 km/h 3.5 km/h 76% 0 mm
07:09 15 °C 10.6 °C 1016.8 hPa NE 1.1 km/h 5 km/h 75% 0 mm
07:14 15.1 °C 10.5 °C 1016.8 hPa NE 1.1 km/h 6.1 km/h 74% 0 mm
07:19 15.3 °C 10.5 °C 1017.2 hPa ENE 1.1 km/h 6.1 km/h 73% 0 mm
07:24 15.5 °C 10.4 °C 1017.2 hPa Calm   5 km/h 72% 0 mm
07:29 15.6 °C 10.6 °C 1017.2 hPa Calm   3.5 km/h 72% 0 mm
07:34 15.7 °C 10.4 °C 1017.2 hPa ENE 1.1 km/h 3.5 km/h 71% 0 mm
07:39 16 °C 10.5 °C 1017.2 hPa SSE 1.1 km/h 5 km/h 70% 0 mm
07:44 16.4 °C 10.9 °C 1017.2 hPa SSE 1.1 km/h 5 km/h 70% 0 mm
07:49 16.8 °C 11.2 °C 1017.2 hPa East 3.5 km/h 7.2 km/h 69% 0 mm
07:54 17.3 °C 11.2 °C 1016.8 hPa East 2.6 km/h 7.2 km/h 67% 0 mm
07:59 17.9 °C 11.5 °C 1017.2 hPa Calm   6.1 km/h 66% 0 mm
08:04 18.2 °C 11.3 °C 1017.2 hPa Calm   6.1 km/h 64% 0 mm
08:14 18.7 °C 11.6 °C 1017.2 hPa NNE 2.6 km/h 7.2 km/h 63% 0 mm
08:19 19.2 °C 11.8 °C 1017.2 hPa North 2.6 km/h 8.7 km/h 62% 0 mm
08:24 19.5 °C 11.8 °C 1017.2 hPa Calm   8.7 km/h 61% 0 mm
08:29 19.7 °C 11.4 °C 1017.2 hPa NNW 3.5 km/h 7.2 km/h 59% 0 mm
08:34 20.1 °C 11.8 °C 1017.2 hPa Calm   11.1 km/h 59% 0 mm
08:39 20.9 °C 12.3 °C 1017.5 hPa North 5 km/h 11.1 km/h 58% 0 mm
08:44 21.4 °C 12.1 °C 1017.2 hPa NNE 8.7 km/h 13.4 km/h 55% 0 mm
08:49 21.4 °C 12.1 °C 1017.5 hPa NNE 2.6 km/h 13.4 km/h 55% 0 mm
08:54 21.4 °C 11.9 °C 1017.8 hPa North 1.1 km/h 12.2 km/h 55% 0 mm
09:04 21.3 °C 11.6 °C 1017.2 hPa NNE 6.1 km/h 13.4 km/h 54% 0 mm
09:09 21.2 °C 11.5 °C 1017.2 hPa NNE 6.1 km/h 13.4 km/h 54% 0 mm
09:14 21.1 °C 11.7 °C 1017.2 hPa NNW 3.5 km/h 14.8 km/h 55% 0 mm
09:19 21.1 °C 11.7 °C 1017.5 hPa NNW 5 km/h 14.8 km/h 55% 0 mm
09:24 21.3 °C 12.2 °C 1017.2 hPa NNW 2.6 km/h 8.7 km/h 56% 0 mm
09:39 23.5 °C 13.4 °C 1017.2 hPa NNW 3.5 km/h 12.2 km/h 53% 0 mm
09:44 24.2 °C 13.4 °C 1017.2 hPa NNW 5 km/h 14.8 km/h 51% 0 mm
09:49 25.2 °C 14.1 °C 1017.2 hPa NNW 6.1 km/h 14.8 km/h 50% 0 mm
09:54 25.9 °C 14.4 °C 1017.2 hPa NW 1.1 km/h 12.2 km/h 49% 0 mm
09:59 26.4 °C 13.9 °C 1017.2 hPa NW 3.5 km/h 12.2 km/h 46% 0 mm
10:04 26.9 °C 14.7 °C 1017.2 hPa NW 3.5 km/h 9.7 km/h 47% 0 mm
10:09 27.6 °C 14.6 °C 1017.2 hPa NNW 3.5 km/h 9.7 km/h 45% 0 mm
10:19 28.5 °C 14.4 °C 1017.2 hPa NNW 5 km/h 13.4 km/h 42% 0 mm
10:24 28.1 °C 13.7 °C 1017.2 hPa NNW 5 km/h 13.4 km/h 41% 0 mm
10:34 27.2 °C 12 °C 1017.2 hPa North 7.2 km/h 12.2 km/h 39% 0 mm
10:39 26.8 °C 11.8 °C 1017.2 hPa NNE 5 km/h 11.1 km/h 39% 0 mm
10:44 26.8 °C 12.1 °C 1017.2 hPa NNE 2.6 km/h 11.1 km/h 40% 0 mm
10:49 27.9 °C 12.7 °C 1017.5 hPa North 3.5 km/h 11.1 km/h 39% 0 mm
10:54 28.7 °C 12.6 °C 1017.2 hPa NNW 5 km/h 13.4 km/h 37% 0 mm
11:04 28.6 °C 12.1 °C 1017.2 hPa North 5 km/h 12.2 km/h 36% 0 mm
11:09 29.3 °C 12.7 °C 1016.8 hPa North 7.2 km/h 17.2 km/h 36% 0 mm
11:14 29.8 °C 12.7 °C 1017.2 hPa North 8.7 km/h 17.2 km/h 35% 0 mm
11:29 31.2 °C 13 °C 1017.2 hPa NNW 6.1 km/h 12.2 km/h 33% 0 mm
11:34 31.3 °C 12.6 °C 1016.8 hPa NNW 6.1 km/h 17.2 km/h 32% 0 mm
11:40 31.6 °C 12.9 °C 1016.8 hPa North 6.1 km/h 17.2 km/h 32% 0 mm
11:45 31.9 °C 12.7 °C 1016.5 hPa North 3.5 km/h 15.8 km/h 31% 0 mm
11:55 32.6 °C 10.7 °C 1016.8 hPa NW 6.1 km/h 20.9 km/h 26% 0 mm
12:00 32.2 °C 9.7 °C 1016.8 hPa NW 8.7 km/h 20.9 km/h 25% 0 mm
12:05 31.9 °C 10.1 °C 1016.8 hPa NNW 11.1 km/h 20.9 km/h 26% 0 mm
12:10 31.6 °C 9.2 °C 1016.8 hPa NW 8.7 km/h 17.2 km/h 25% 0 mm
12:15 30.9 °C 8.7 °C 1016.8 hPa WNW 7.2 km/h 17.2 km/h 25% 0 mm
12:20 30.3 °C 7.5 °C 1016.5 hPa West 7.2 km/h 15.8 km/h 24% 0 mm
12:25 29.9 °C 8.3 °C 1016.8 hPa WNW 7.2 km/h 13.4 km/h 26% 0 mm
12:30 30 °C 8.4 °C 1016.8 hPa NW 7.2 km/h 13.4 km/h 26% 0 mm
12:35 30 °C 8.4 °C 1016.5 hPa NNW 5 km/h 18.3 km/h 26% 0 mm
12:40 30.5 °C 9.9 °C 1016.5 hPa NNW 5 km/h 18.3 km/h 28% 0 mm
12:45 30.9 °C 9.3 °C 1016.5 hPa North 5 km/h 11.1 km/h 26% 0 mm
12:55 31.8 °C 10 °C 1016.1 hPa North 7.2 km/h 17.2 km/h 26% 0 mm
13:05 32.4 °C 11.1 °C 1016.1 hPa NNW 7.2 km/h 20.9 km/h 27% 0 mm
13:10 32.4 °C 11.1 °C 1016.1 hPa North 8.7 km/h 20.9 km/h 27% 0 mm
13:20 31.8 °C 10.6 °C 1016.1 hPa North 14.8 km/h 30.6 km/h 27% 0 mm
13:25 32.1 °C 10.7 °C 1016.1 hPa North 13.4 km/h 30.6 km/h 27% 0 mm
13:30 32.6 °C 10.6 °C 1016.1 hPa North 7.2 km/h 30.6 km/h 26% 0 mm
13:40 33.4 °C 11.9 °C 1015.8 hPa WNW 14.8 km/h 25.6 km/h 27% 0 mm
13:45 33.9 °C 12.3 °C 1015.8 hPa NNW 8.7 km/h 25.6 km/h 27% 0 mm
13:50 33.9 °C 11.7 °C 1015.8 hPa NNW 15.8 km/h 27 km/h 26% 0 mm
13:55 33.7 °C 11 °C 1015.5 hPa NW 11.1 km/h 33.2 km/h 25% 0 mm
14:00 33.8 °C 12.2 °C 1015.5 hPa NW 9.7 km/h 33.2 km/h 27% 0 mm
14:05 34 °C 11.8 °C 1015.5 hPa NW 15.8 km/h 29.5 km/h 26% 0 mm
14:10 33.9 °C 12.3 °C 1015.5 hPa NW 12.2 km/h 29.5 km/h 27% 0 mm
14:15 33.9 °C 12.3 °C 1015.5 hPa NW 19.5 km/h 36.7 km/h 27% 0 mm
14:20 34 °C 12.4 °C 1015.5 hPa WNW 7.2 km/h 36.7 km/h 27% 0 mm
14:25 34.2 °C 12.6 °C 1015.1 hPa NW 15.8 km/h 36.7 km/h 27% 0 mm
14:30 34.2 °C 12.6 °C 1015.1 hPa NW 19.5 km/h 35.6 km/h 27% 0 mm
14:35 33.9 °C 12.9 °C 1015.1 hPa NW 8.7 km/h 35.6 km/h 28% 0 mm
14:40 33.5 °C 13.1 °C 1015.1 hPa NW 13.4 km/h 35.6 km/h 29% 0 mm
14:50 33.7 °C 12.7 °C 1014.8 hPa WNW 15.8 km/h 25.6 km/h 28% 0 mm
14:55 33.9 °C 13.4 °C 1014.8 hPa NW 18.3 km/h 31.7 km/h 29% 0 mm
15:00 34 °C 13.5 °C 1014.8 hPa NW 19.5 km/h 31.7 km/h 29% 0 mm
15:15 34 °C 13.5 °C 1014.8 hPa NW 11.1 km/h 34.3 km/h 29% 0 mm
15:20 33.9 °C 13.4 °C 1014.8 hPa WNW 12.2 km/h 34.3 km/h 29% 0 mm
15:25 33.8 °C 13.3 °C 1014.8 hPa West 8.7 km/h 28 km/h 29% 0 mm
15:30 33.7 °C 13.2 °C 1014.8 hPa West 7.2 km/h 23.3 km/h 29% 0 mm
15:35 34 °C 13.5 °C 1014.8 hPa WNW 7.2 km/h 23.3 km/h 29% 0 mm
15:40 34.4 °C 13.8 °C 1014.8 hPa NW 8.7 km/h 23.3 km/h 29% 0 mm
15:45 34.6 °C 14.5 °C 1014.4 hPa NNW 8.7 km/h 19.5 km/h 30% 0 mm
15:50 34.4 °C 12.7 °C 1014.4 hPa NW 8.7 km/h 24.5 km/h 27% 0 mm
16:00 33.8 °C 12.8 °C 1014.4 hPa NW 12.2 km/h 25.6 km/h 28% 0 mm
16:10 34 °C 13.5 °C 1014.4 hPa WNW 11.1 km/h 19.5 km/h 29% 0 mm
16:15 33.9 °C 12.9 °C 1014.1 hPa WNW 3.5 km/h 23.3 km/h 28% 0 mm
16:20 34.1 °C 13.6 °C 1014.1 hPa WNW 14.8 km/h 25.6 km/h 29% 0 mm
16:25 34.1 °C 13.1 °C 1014.1 hPa NW 7.2 km/h 27 km/h 28% 0 mm
16:30 34.2 °C 13.1 °C 1014.1 hPa NW 12.2 km/h 27 km/h 28% 0 mm
16:36 34.1 °C 13.6 °C 1014.4 hPa NW 11.1 km/h 27 km/h 29% 0 mm
16:41 34.1 °C 13.6 °C 1014.1 hPa WNW 5 km/h 27 km/h 29% 0 mm
16:46 33.9 °C 12.9 °C 1014.1 hPa WSW 9.7 km/h 19.5 km/h 28% 0 mm
16:51 33.9 °C 13.4 °C 1014.4 hPa West 15.8 km/h 21.9 km/h 29% 0 mm
16:56 33.7 °C 13.2 °C 1014.1 hPa NW 6.1 km/h 21.9 km/h 29% 0 mm
17:01 33.5 °C 13.1 °C 1014.4 hPa NW 7.2 km/h 21.9 km/h 29% 0 mm
17:06 33.1 °C 12.7 °C 1014.1 hPa WNW 11.1 km/h 28 km/h 29% 0 mm
17:11 32.6 °C 12.7 °C 1014.1 hPa West 12.2 km/h 28 km/h 30% 0 mm
17:16 32.4 °C 12.7 °C 1014.1 hPa WNW 11.1 km/h 27 km/h 30% 0 mm
17:21 32.6 °C 13.3 °C 1014.1 hPa NW 6.1 km/h 23.3 km/h 31% 0 mm
17:26 32.9 °C 13.1 °C 1014.1 hPa WNW 11.1 km/h 19.5 km/h 30% 0 mm
17:31 32.9 °C 13.6 °C 1014.1 hPa WNW 9.7 km/h 21.9 km/h 31% 0 mm
17:36 32.9 °C 13.6 °C 1014.1 hPa NW 8.7 km/h 21.9 km/h 31% 0 mm
www.araratweather.com - Email: contact at araratweather.com
Data created with Cumulus & bmak
Click here to send mail.


ABOUT

Live weather data from Ararat, Victoria, Australia, 3377
Data uploaded from Cumulus every 5 minutes to Weather Underground.
This site then downloads the raw data for formatting and display.
Metric and imperial data can be displayed. Graphs and historical data available.
Includes Sun and Moon times and rain image live from BOM.

Check out Ararat Weather on Facebook, Twitter and Google +

Help support ongoing costs by checking out the ads





Follow @AraratWeather